sensor_id;sensor_type;location;lat;lon;timestamp;P1;durP1;ratioP1;P2;durP2;ratioP2
10825;SDS011;5466;55.898;14.094;2024-03-08T00:01:18;16.10;;;9.97;;
10825;SDS011;5466;55.898;14.094;2024-03-08T00:03:19;18.00;;;10.17;;
10825;SDS011;5466;55.898;14.094;2024-03-08T00:05:20;15.20;;;10.70;;
10825;SDS011;5466;55.898;14.094;2024-03-08T00:07:21;15.43;;;9.13;;
10825;SDS011;5466;55.898;14.094;2024-03-08T00:09:22;19.40;;;10.33;;
10825;SDS011;5466;55.898;14.094;2024-03-08T00:11:23;20.33;;;10.57;;
10825;SDS011;5466;55.898;14.094;2024-03-08T00:13:26;18.80;;;10.90;;
10825;SDS011;5466;55.898;14.094;2024-03-08T00:15:26;19.43;;;11.63;;
10825;SDS011;5466;55.898;14.094;2024-03-08T00:17:29;22.33;;;11.07;;
10825;SDS011;5466;55.898;14.094;2024-03-08T00:19:31;21.13;;;11.60;;
10825;SDS011;5466;55.898;14.094;2024-03-08T00:21:32;19.20;;;10.83;;
10825;SDS011;5466;55.898;14.094;2024-03-08T00:23:32;20.70;;;10.87;;
10825;SDS011;5466;55.898;14.094;2024-03-08T00:25:33;16.87;;;11.17;;
10825;SDS011;5466;55.898;14.094;2024-03-08T00:27:34;26.57;;;11.63;;
10825;SDS011;5466;55.898;14.094;2024-03-08T00:29:35;18.47;;;10.27;;
10825;SDS011;5466;55.898;14.094;2024-03-08T00:31:35;18.17;;;10.47;;
10825;SDS011;5466;55.898;14.094;2024-03-08T00:33:36;17.57;;;10.10;;
10825;SDS011;5466;55.898;14.094;2024-03-08T00:35:36;17.80;;;10.50;;
10825;SDS011;5466;55.898;14.094;2024-03-08T00:37:37;14.97;;;9.07;;
10825;SDS011;5466;55.898;14.094;2024-03-08T00:39:38;15.67;;;9.10;;
10825;SDS011;5466;55.898;14.094;2024-03-08T00:41:38;14.30;;;9.73;;
10825;SDS011;5466;55.898;14.094;2024-03-08T00:43:39;15.00;;;8.30;;
10825;SDS011;5466;55.898;14.094;2024-03-08T00:45:40;16.67;;;8.97;;
10825;SDS011;5466;55.898;14.094;2024-03-08T00:47:42;17.90;;;10.73;;
10825;SDS011;5466;55.898;14.094;2024-03-08T00:49:44;16.93;;;10.87;;
10825;SDS011;5466;55.898;14.094;2024-03-08T00:51:44;19.57;;;9.77;;
10825;SDS011;5466;55.898;14.094;2024-03-08T00:53:45;13.50;;;8.03;;
10825;SDS011;5466;55.898;14.094;2024-03-08T00:55:46;17.33;;;8.67;;
10825;SDS011;5466;55.898;14.094;2024-03-08T00:57:47;19.07;;;9.27;;
10825;SDS011;5466;55.898;14.094;2024-03-08T00:59:48;15.03;;;9.13;;
10825;SDS011;5466;55.898;14.094;2024-03-08T01:01:48;17.13;;;9.47;;
10825;SDS011;5466;55.898;14.094;2024-03-08T01:03:49;15.23;;;9.07;;
10825;SDS011;5466;55.898;14.094;2024-03-08T01:05:49;16.07;;;8.63;;
10825;SDS011;5466;55.898;14.094;2024-03-08T01:07:51;16.03;;;8.93;;
10825;SDS011;5466;55.898;14.094;2024-03-08T01:09:52;18.77;;;9.37;;
10825;SDS011;5466;55.898;14.094;2024-03-08T01:11:53;14.33;;;8.53;;
10825;SDS011;5466;55.898;14.094;2024-03-08T01:13:56;13.37;;;8.20;;
10825;SDS011;5466;55.898;14.094;2024-03-08T01:15:57;14.70;;;9.00;;
10825;SDS011;5466;55.898;14.094;2024-03-08T01:17:58;14.23;;;8.73;;
10825;SDS011;5466;55.898;14.094;2024-03-08T01:19:58;11.97;;;7.93;;
10825;SDS011;5466;55.898;14.094;2024-03-08T01:21:59;15.57;;;7.67;;
10825;SDS011;5466;55.898;14.094;2024-03-08T01:24:00;16.07;;;8.80;;
10825;SDS011;5466;55.898;14.094;2024-03-08T01:26:00;13.83;;;8.13;;
10825;SDS011;5466;55.898;14.094;2024-03-08T01:28:02;12.43;;;7.93;;
10825;SDS011;5466;55.898;14.094;2024-03-08T01:30:04;13.30;;;7.17;;
10825;SDS011;5466;55.898;14.094;2024-03-08T01:32:05;9.17;;;6.97;;
10825;SDS011;5466;55.898;14.094;2024-03-08T01:34:06;11.03;;;7.93;;
10825;SDS011;5466;55.898;14.094;2024-03-08T01:36:07;8.90;;;6.33;;
10825;SDS011;5466;55.898;14.094;2024-03-08T01:38:08;10.03;;;6.50;;
10825;SDS011;5466;55.898;14.094;2024-03-08T01:40:09;10.47;;;6.20;;
10825;SDS011;5466;55.898;14.094;2024-03-08T01:42:10;11.93;;;6.80;;
10825;SDS011;5466;55.898;14.094;2024-03-08T01:44:12;11.03;;;6.87;;
10825;SDS011;5466;55.898;14.094;2024-03-08T01:46:17;10.83;;;6.07;;
10825;SDS011;5466;55.898;14.094;2024-03-08T01:48:22;11.10;;;6.73;;
10825;SDS011;5466;55.898;14.094;2024-03-08T01:50:23;8.63;;;6.33;;
10825;SDS011;5466;55.898;14.094;2024-03-08T01:52:24;11.60;;;7.00;;
10825;SDS011;5466;55.898;14.094;2024-03-08T01:54:26;8.87;;;6.20;;
10825;SDS011;5466;55.898;14.094;2024-03-08T01:56:27;12.07;;;7.07;;
10825;SDS011;5466;55.898;14.094;2024-03-08T01:58:29;10.70;;;6.13;;
10825;SDS011;5466;55.898;14.094;2024-03-08T02:00:30;9.13;;;6.63;;
10825;SDS011;5466;55.898;14.094;2024-03-08T02:02:32;12.87;;;6.90;;
10825;SDS011;5466;55.898;14.094;2024-03-08T02:04:37;10.33;;;6.30;;
10825;SDS011;5466;55.898;14.094;2024-03-08T02:06:38;8.47;;;6.00;;
10825;SDS011;5466;55.898;14.094;2024-03-08T02:08:39;9.40;;;6.80;;
10825;SDS011;5466;55.898;14.094;2024-03-08T02:10:41;9.07;;;6.00;;
10825;SDS011;5466;55.898;14.094;2024-03-08T02:12:43;11.80;;;6.97;;
10825;SDS011;5466;55.898;14.094;2024-03-08T02:14:46;9.43;;;6.20;;
10825;SDS011;5466;55.898;14.094;2024-03-08T02:16:47;10.50;;;6.50;;
10825;SDS011;5466;55.898;14.094;2024-03-08T02:18:48;9.40;;;6.87;;
10825;SDS011;5466;55.898;14.094;2024-03-08T02:20:52;9.47;;;6.20;;
10825;SDS011;5466;55.898;14.094;2024-03-08T02:22:53;10.43;;;5.87;;
10825;SDS011;5466;55.898;14.094;2024-03-08T02:24:54;8.03;;;5.90;;
10825;SDS011;5466;55.898;14.094;2024-03-08T02:26:55;8.90;;;6.27;;
10825;SDS011;5466;55.898;14.094;2024-03-08T02:28:56;7.73;;;5.83;;
10825;SDS011;5466;55.898;14.094;2024-03-08T02:30:57;8.83;;;6.23;;
10825;SDS011;5466;55.898;14.094;2024-03-08T02:32:57;6.77;;;5.07;;
10825;SDS011;5466;55.898;14.094;2024-03-08T02:34:58;7.70;;;5.77;;
10825;SDS011;5466;55.898;14.094;2024-03-08T02:36:59;8.27;;;5.57;;
10825;SDS011;5466;55.898;14.094;2024-03-08T02:39:03;6.83;;;5.83;;
10825;SDS011;5466;55.898;14.094;2024-03-08T02:41:05;7.47;;;5.30;;
10825;SDS011;5466;55.898;14.094;2024-03-08T02:43:06;8.70;;;6.03;;
10825;SDS011;5466;55.898;14.094;2024-03-08T02:45:07;10.13;;;5.90;;
10825;SDS011;5466;55.898;14.094;2024-03-08T02:47:09;7.43;;;5.37;;
10825;SDS011;5466;55.898;14.094;2024-03-08T02:49:10;11.17;;;6.03;;
10825;SDS011;5466;55.898;14.094;2024-03-08T02:51:11;8.50;;;5.40;;
10825;SDS011;5466;55.898;14.094;2024-03-08T02:53:13;7.77;;;5.70;;
10825;SDS011;5466;55.898;14.094;2024-03-08T02:55:14;11.27;;;5.60;;
10825;SDS011;5466;55.898;14.094;2024-03-08T02:57:17;9.17;;;6.27;;
10825;SDS011;5466;55.898;14.094;2024-03-08T02:59:18;7.73;;;5.07;;
10825;SDS011;5466;55.898;14.094;2024-03-08T03:01:19;7.27;;;5.20;;
10825;SDS011;5466;55.898;14.094;2024-03-08T03:03:20;7.50;;;5.10;;
10825;SDS011;5466;55.898;14.094;2024-03-08T03:05:21;7.33;;;5.00;;
10825;SDS011;5466;55.898;14.094;2024-03-08T03:07:23;7.43;;;5.20;;
10825;SDS011;5466;55.898;14.094;2024-03-08T03:09:24;6.63;;;4.87;;
10825;SDS011;5466;55.898;14.094;2024-03-08T03:11:27;6.03;;;4.57;;
10825;SDS011;5466;55.898;14.094;2024-03-08T03:13:28;7.10;;;5.20;;
10825;SDS011;5466;55.898;14.094;2024-03-08T03:15:29;7.07;;;4.50;;
10825;SDS011;5466;55.898;14.094;2024-03-08T03:17:30;6.93;;;4.67;;
10825;SDS011;5466;55.898;14.094;2024-03-08T03:19:30;5.67;;;4.50;;
10825;SDS011;5466;55.898;14.094;2024-03-08T03:21:31;6.90;;;4.57;;
10825;SDS011;5466;55.898;14.094;2024-03-08T03:23:32;7.13;;;5.00;;
10825;SDS011;5466;55.898;14.094;2024-03-08T03:25:33;7.37;;;4.50;;
10825;SDS011;5466;55.898;14.094;2024-03-08T03:27:35;6.97;;;5.20;;
10825;SDS011;5466;55.898;14.094;2024-03-08T03:29:38;5.70;;;4.30;;
10825;SDS011;5466;55.898;14.094;2024-03-08T03:31:40;5.70;;;4.67;;
10825;SDS011;5466;55.898;14.094;2024-03-08T03:33:40;8.23;;;4.20;;
10825;SDS011;5466;55.898;14.094;2024-03-08T03:35:41;6.50;;;4.87;;
10825;SDS011;5466;55.898;14.094;2024-03-08T03:37:43;7.17;;;4.87;;
10825;SDS011;5466;55.898;14.094;2024-03-08T03:39:51;7.47;;;4.73;;
10825;SDS011;5466;55.898;14.094;2024-03-08T03:41:53;7.23;;;4.80;;
10825;SDS011;5466;55.898;14.094;2024-03-08T03:43:53;8.10;;;4.90;;
10825;SDS011;5466;55.898;14.094;2024-03-08T03:45:54;6.37;;;4.80;;
10825;SDS011;5466;55.898;14.094;2024-03-08T03:47:55;5.67;;;4.57;;
10825;SDS011;5466;55.898;14.094;2024-03-08T03:49:56;7.67;;;4.83;;
10825;SDS011;5466;55.898;14.094;2024-03-08T03:52:01;6.30;;;4.73;;
10825;SDS011;5466;55.898;14.094;2024-03-08T03:54:04;7.40;;;5.47;;
10825;SDS011;5466;55.898;14.094;2024-03-08T03:56:05;5.20;;;4.37;;
10825;SDS011;5466;55.898;14.094;2024-03-08T03:58:07;5.63;;;4.60;;
10825;SDS011;5466;55.898;14.094;2024-03-08T04:00:09;9.30;;;5.30;;
10825;SDS011;5466;55.898;14.094;2024-03-08T04:02:10;6.10;;;4.77;;
10825;SDS011;5466;55.898;14.094;2024-03-08T04:04:10;7.33;;;4.70;;
10825;SDS011;5466;55.898;14.094;2024-03-08T04:06:12;6.23;;;4.60;;
10825;SDS011;5466;55.898;14.094;2024-03-08T04:08:14;8.30;;;4.80;;
10825;SDS011;5466;55.898;14.094;2024-03-08T04:10:14;6.87;;;5.07;;
10825;SDS011;5466;55.898;14.094;2024-03-08T04:12:15;7.30;;;4.87;;
10825;SDS011;5466;55.898;14.094;2024-03-08T04:14:16;4.47;;;4.07;;
10825;SDS011;5466;55.898;14.094;2024-03-08T04:16:17;5.80;;;4.67;;
10825;SDS011;5466;55.898;14.094;2024-03-08T04:18:19;5.83;;;4.20;;
10825;SDS011;5466;55.898;14.094;2024-03-08T04:20:19;6.40;;;4.57;;
10825;SDS011;5466;55.898;14.094;2024-03-08T04:22:21;5.03;;;3.93;;
10825;SDS011;5466;55.898;14.094;2024-03-08T04:24:22;6.43;;;5.20;;
10825;SDS011;5466;55.898;14.094;2024-03-08T04:26:23;7.13;;;4.97;;
10825;SDS011;5466;55.898;14.094;2024-03-08T04:28:23;4.93;;;4.27;;
10825;SDS011;5466;55.898;14.094;2024-03-08T04:30:26;8.23;;;4.93;;
10825;SDS011;5466;55.898;14.094;2024-03-08T04:32:28;10.03;;;4.70;;
10825;SDS011;5466;55.898;14.094;2024-03-08T04:34:29;5.03;;;3.87;;
10825;SDS011;5466;55.898;14.094;2024-03-08T04:36:30;5.77;;;4.70;;
10825;SDS011;5466;55.898;14.094;2024-03-08T04:38:31;5.17;;;4.40;;
10825;SDS011;5466;55.898;14.094;2024-03-08T04:40:31;5.93;;;4.47;;
10825;SDS011;5466;55.898;14.094;2024-03-08T04:42:32;5.57;;;4.50;;
10825;SDS011;5466;55.898;14.094;2024-03-08T04:44:33;5.10;;;3.83;;
10825;SDS011;5466;55.898;14.094;2024-03-08T04:46:34;5.20;;;4.40;;
10825;SDS011;5466;55.898;14.094;2024-03-08T04:48:35;7.03;;;4.43;;
10825;SDS011;5466;55.898;14.094;2024-03-08T04:50:36;6.43;;;4.80;;
10825;SDS011;5466;55.898;14.094;2024-03-08T04:52:38;7.87;;;4.67;;
10825;SDS011;5466;55.898;14.094;2024-03-08T04:54:38;6.43;;;4.80;;
10825;SDS011;5466;55.898;14.094;2024-03-08T04:56:39;7.63;;;5.20;;
10825;SDS011;5466;55.898;14.094;2024-03-08T04:58:40;5.97;;;4.10;;
10825;SDS011;5466;55.898;14.094;2024-03-08T05:00:40;6.40;;;4.43;;
10825;SDS011;5466;55.898;14.094;2024-03-08T05:02:41;5.47;;;4.50;;
10825;SDS011;5466;55.898;14.094;2024-03-08T05:04:41;5.27;;;4.30;;
10825;SDS011;5466;55.898;14.094;2024-03-08T05:06:42;5.63;;;4.10;;
10825;SDS011;5466;55.898;14.094;2024-03-08T05:08:43;6.03;;;4.23;;
10825;SDS011;5466;55.898;14.094;2024-03-08T05:10:43;6.47;;;4.27;;
10825;SDS011;5466;55.898;14.094;2024-03-08T05:12:44;7.00;;;4.60;;
10825;SDS011;5466;55.898;14.094;2024-03-08T05:14:45;10.77;;;4.30;;
10825;SDS011;5466;55.898;14.094;2024-03-08T05:16:49;11.57;;;4.87;;
10825;SDS011;5466;55.898;14.094;2024-03-08T05:18:50;8.20;;;4.20;;
10825;SDS011;5466;55.898;14.094;2024-03-08T05:20:51;9.73;;;4.20;;
10825;SDS011;5466;55.898;14.094;2024-03-08T05:22:52;8.47;;;5.50;;
10825;SDS011;5466;55.898;14.094;2024-03-08T05:24:52;12.90;;;4.90;;
10825;SDS011;5466;55.898;14.094;2024-03-08T05:26:53;7.33;;;5.10;;
10825;SDS011;5466;55.898;14.094;2024-03-08T05:28:53;6.47;;;5.20;;
10825;SDS011;5466;55.898;14.094;2024-03-08T05:30:54;7.17;;;4.63;;
10825;SDS011;5466;55.898;14.094;2024-03-08T05:32:56;5.23;;;4.60;;
10825;SDS011;5466;55.898;14.094;2024-03-08T05:34:57;6.30;;;4.50;;
10825;SDS011;5466;55.898;14.094;2024-03-08T05:36:58;6.03;;;5.00;;
10825;SDS011;5466;55.898;14.094;2024-03-08T05:39:00;6.97;;;4.43;;
10825;SDS011;5466;55.898;14.094;2024-03-08T05:41:00;6.67;;;4.90;;
10825;SDS011;5466;55.898;14.094;2024-03-08T05:43:01;6.57;;;4.37;;
10825;SDS011;5466;55.898;14.094;2024-03-08T05:45:02;7.87;;;4.20;;
10825;SDS011;5466;55.898;14.094;2024-03-08T05:47:03;6.03;;;4.43;;
10825;SDS011;5466;55.898;14.094;2024-03-08T05:49:07;7.23;;;5.10;;
10825;SDS011;5466;55.898;14.094;2024-03-08T05:51:09;5.37;;;3.83;;
10825;SDS011;5466;55.898;14.094;2024-03-08T05:53:10;5.57;;;4.40;;
10825;SDS011;5466;55.898;14.094;2024-03-08T05:55:11;8.07;;;4.60;;
10825;SDS011;5466;55.898;14.094;2024-03-08T05:57:14;6.03;;;4.37;;
10825;SDS011;5466;55.898;14.094;2024-03-08T05:59:14;8.93;;;4.30;;
10825;SDS011;5466;55.898;14.094;2024-03-08T06:01:15;9.53;;;5.37;;
10825;SDS011;5466;55.898;14.094;2024-03-08T06:03:16;11.43;;;6.93;;
10825;SDS011;5466;55.898;14.094;2024-03-08T06:05:18;14.70;;;9.37;;
10825;SDS011;5466;55.898;14.094;2024-03-08T06:07:18;20.47;;;12.50;;
10825;SDS011;5466;55.898;14.094;2024-03-08T06:09:20;23.97;;;13.60;;
10825;SDS011;5466;55.898;14.094;2024-03-08T06:11:23;26.67;;;14.07;;
10825;SDS011;5466;55.898;14.094;2024-03-08T06:13:23;23.33;;;12.47;;
10825;SDS011;5466;55.898;14.094;2024-03-08T06:15:24;13.50;;;8.13;;
10825;SDS011;5466;55.898;14.094;2024-03-08T06:17:25;10.10;;;7.33;;
10825;SDS011;5466;55.898;14.094;2024-03-08T06:19:25;14.50;;;8.07;;
10825;SDS011;5466;55.898;14.094;2024-03-08T06:21:26;11.33;;;8.77;;
10825;SDS011;5466;55.898;14.094;2024-03-08T06:23:27;15.90;;;10.23;;
10825;SDS011;5466;55.898;14.094;2024-03-08T06:25:28;24.63;;;13.53;;
10825;SDS011;5466;55.898;14.094;2024-03-08T06:27:29;17.83;;;11.23;;
10825;SDS011;5466;55.898;14.094;2024-03-08T06:29:33;11.87;;;8.77;;
10825;SDS011;5466;55.898;14.094;2024-03-08T06:31:34;12.07;;;8.70;;
10825;SDS011;5466;55.898;14.094;2024-03-08T06:33:38;14.93;;;9.90;;
10825;SDS011;5466;55.898;14.094;2024-03-08T06:35:39;19.73;;;11.47;;
10825;SDS011;5466;55.898;14.094;2024-03-08T06:37:39;26.90;;;14.10;;
10825;SDS011;5466;55.898;14.094;2024-03-08T06:39:42;24.73;;;14.03;;
10825;SDS011;5466;55.898;14.094;2024-03-08T06:41:42;24.37;;;12.10;;
10825;SDS011;5466;55.898;14.094;2024-03-08T06:43:47;20.83;;;11.60;;
10825;SDS011;5466;55.898;14.094;2024-03-08T06:45:48;21.13;;;11.43;;
10825;SDS011;5466;55.898;14.094;2024-03-08T06:47:50;16.93;;;9.80;;
10825;SDS011;5466;55.898;14.094;2024-03-08T06:49:51;19.83;;;9.67;;
10825;SDS011;5466;55.898;14.094;2024-03-08T06:51:52;16.43;;;9.07;;
10825;SDS011;5466;55.898;14.094;2024-03-08T06:53:53;12.93;;;8.83;;
10825;SDS011;5466;55.898;14.094;2024-03-08T06:55:53;16.90;;;9.80;;
10825;SDS011;5466;55.898;14.094;2024-03-08T06:57:54;14.30;;;10.00;;
10825;SDS011;5466;55.898;14.094;2024-03-08T06:59:55;19.90;;;11.83;;
10825;SDS011;5466;55.898;14.094;2024-03-08T07:01:57;17.10;;;10.70;;
10825;SDS011;5466;55.898;14.094;2024-03-08T07:03:59;15.77;;;9.97;;
10825;SDS011;5466;55.898;14.094;2024-03-08T07:06:02;21.03;;;10.03;;
10825;SDS011;5466;55.898;14.094;2024-03-08T07:08:03;16.70;;;9.63;;
10825;SDS011;5466;55.898;14.094;2024-03-08T07:10:04;17.10;;;10.70;;
10825;SDS011;5466;55.898;14.094;2024-03-08T07:12:05;29.13;;;10.03;;
10825;SDS011;5466;55.898;14.094;2024-03-08T07:14:06;29.20;;;10.23;;
10825;SDS011;5466;55.898;14.094;2024-03-08T07:16:07;23.03;;;9.47;;
10825;SDS011;5466;55.898;14.094;2024-03-08T07:18:07;26.17;;;9.90;;
10825;SDS011;5466;55.898;14.094;2024-03-08T07:20:09;23.47;;;10.57;;
10825;SDS011;5466;55.898;14.094;2024-03-08T07:22:12;28.57;;;10.83;;
10825;SDS011;5466;55.898;14.094;2024-03-08T07:24:13;15.13;;;10.30;;
10825;SDS011;5466;55.898;14.094;2024-03-08T07:26:16;13.93;;;9.60;;
10825;SDS011;5466;55.898;14.094;2024-03-08T07:28:18;13.67;;;8.57;;
10825;SDS011;5466;55.898;14.094;2024-03-08T07:30:19;14.77;;;9.13;;
10825;SDS011;5466;55.898;14.094;2024-03-08T07:32:40;14.90;;;8.47;;
10825;SDS011;5466;55.898;14.094;2024-03-08T07:34:41;13.70;;;8.80;;
10825;SDS011;5466;55.898;14.094;2024-03-08T07:36:41;13.23;;;8.00;;
10825;SDS011;5466;55.898;14.094;2024-03-08T07:38:42;12.07;;;7.63;;
10825;SDS011;5466;55.898;14.094;2024-03-08T07:40:43;10.73;;;7.90;;
10825;SDS011;5466;55.898;14.094;2024-03-08T07:42:44;10.87;;;7.87;;
10825;SDS011;5466;55.898;14.094;2024-03-08T07:44:45;9.13;;;6.37;;
10825;SDS011;5466;55.898;14.094;2024-03-08T07:46:48;13.80;;;6.37;;
10825;SDS011;5466;55.898;14.094;2024-03-08T07:48:49;10.07;;;6.30;;
10825;SDS011;5466;55.898;14.094;2024-03-08T07:50:49;9.83;;;6.63;;
10825;SDS011;5466;55.898;14.094;2024-03-08T07:52:50;8.57;;;6.60;;
10825;SDS011;5466;55.898;14.094;2024-03-08T07:54:51;7.83;;;6.00;;
10825;SDS011;5466;55.898;14.094;2024-03-08T07:56:51;9.17;;;6.30;;
10825;SDS011;5466;55.898;14.094;2024-03-08T07:58:52;9.73;;;6.13;;
10825;SDS011;5466;55.898;14.094;2024-03-08T08:00:53;10.70;;;6.30;;
10825;SDS011;5466;55.898;14.094;2024-03-08T08:02:54;9.13;;;6.20;;
10825;SDS011;5466;55.898;14.094;2024-03-08T08:04:55;8.23;;;6.03;;
10825;SDS011;5466;55.898;14.094;2024-03-08T08:06:59;9.23;;;6.70;;
10825;SDS011;5466;55.898;14.094;2024-03-08T08:08:59;8.77;;;6.67;;
10825;SDS011;5466;55.898;14.094;2024-03-08T08:11:00;11.93;;;6.83;;
10825;SDS011;5466;55.898;14.094;2024-03-08T08:13:02;9.37;;;6.57;;
10825;SDS011;5466;55.898;14.094;2024-03-08T08:15:06;13.20;;;7.67;;
10825;SDS011;5466;55.898;14.094;2024-03-08T08:17:07;13.40;;;7.43;;
10825;SDS011;5466;55.898;14.094;2024-03-08T08:19:08;9.77;;;8.07;;
10825;SDS011;5466;55.898;14.094;2024-03-08T08:21:09;10.13;;;7.77;;
10825;SDS011;5466;55.898;14.094;2024-03-08T08:23:10;13.60;;;9.03;;
10825;SDS011;5466;55.898;14.094;2024-03-08T08:25:12;9.73;;;8.03;;
10825;SDS011;5466;55.898;14.094;2024-03-08T08:27:13;12.77;;;9.07;;
10825;SDS011;5466;55.898;14.094;2024-03-08T08:29:14;12.97;;;8.53;;
10825;SDS011;5466;55.898;14.094;2024-03-08T08:31:15;12.77;;;9.13;;
10825;SDS011;5466;55.898;14.094;2024-03-08T08:33:16;9.90;;;8.00;;
10825;SDS011;5466;55.898;14.094;2024-03-08T08:35:16;11.90;;;8.93;;
10825;SDS011;5466;55.898;14.094;2024-03-08T08:37:19;12.90;;;8.10;;
10825;SDS011;5466;55.898;14.094;2024-03-08T08:39:20;11.63;;;7.87;;
10825;SDS011;5466;55.898;14.094;2024-03-08T08:41:22;10.77;;;7.40;;
10825;SDS011;5466;55.898;14.094;2024-03-08T08:43:23;11.03;;;7.00;;
10825;SDS011;5466;55.898;14.094;2024-03-08T08:45:25;9.50;;;7.20;;
10825;SDS011;5466;55.898;14.094;2024-03-08T08:47:27;9.53;;;7.03;;
10825;SDS011;5466;55.898;14.094;2024-03-08T08:49:28;11.40;;;6.80;;
10825;SDS011;5466;55.898;14.094;2024-03-08T08:51:28;10.50;;;6.97;;
10825;SDS011;5466;55.898;14.094;2024-03-08T08:53:29;9.33;;;7.43;;
10825;SDS011;5466;55.898;14.094;2024-03-08T08:55:30;8.83;;;6.87;;
10825;SDS011;5466;55.898;14.094;2024-03-08T08:57:31;10.40;;;7.07;;
10825;SDS011;5466;55.898;14.094;2024-03-08T08:59:36;8.97;;;6.70;;
10825;SDS011;5466;55.898;14.094;2024-03-08T09:01:39;8.67;;;7.10;;
10825;SDS011;5466;55.898;14.094;2024-03-08T09:03:40;9.02;;;7.20;;
10825;SDS011;5466;55.898;14.094;2024-03-08T09:05:41;9.27;;;7.77;;
10825;SDS011;5466;55.898;14.094;2024-03-08T09:07:43;9.48;;;7.25;;
10825;SDS011;5466;55.898;14.094;2024-03-08T09:09:46;9.05;;;7.13;;
10825;SDS011;5466;55.898;14.094;2024-03-08T09:11:47;10.90;;;6.88;;
10825;SDS011;5466;55.898;14.094;2024-03-08T09:13:49;9.13;;;6.75;;
10825;SDS011;5466;55.898;14.094;2024-03-08T09:15:50;9.45;;;6.97;;
10825;SDS011;5466;55.898;14.094;2024-03-08T09:17:52;9.00;;;6.63;;
10825;SDS011;5466;55.898;14.094;2024-03-08T09:19:53;7.90;;;6.75;;
10825;SDS011;5466;55.898;14.094;2024-03-08T09:21:54;8.65;;;6.85;;
10825;SDS011;5466;55.898;14.094;2024-03-08T09:23:54;8.65;;;7.25;;
10825;SDS011;5466;55.898;14.094;2024-03-08T09:25:58;11.13;;;7.00;;
10825;SDS011;5466;55.898;14.094;2024-03-08T09:27:59;8.20;;;7.03;;
10825;SDS011;5466;55.898;14.094;2024-03-08T09:29:59;9.75;;;7.07;;
10825;SDS011;5466;55.898;14.094;2024-03-08T09:32:01;8.05;;;6.47;;
10825;SDS011;5466;55.898;14.094;2024-03-08T09:34:03;8.45;;;6.75;;
10825;SDS011;5466;55.898;14.094;2024-03-08T09:36:04;7.35;;;6.32;;
10825;SDS011;5466;55.898;14.094;2024-03-08T09:38:07;8.68;;;6.30;;
10825;SDS011;5466;55.898;14.094;2024-03-08T09:40:13;6.70;;;6.00;;
10825;SDS011;5466;55.898;14.094;2024-03-08T09:42:15;7.57;;;6.22;;
10825;SDS011;5466;55.898;14.094;2024-03-08T09:44:16;7.00;;;6.25;;
10825;SDS011;5466;55.898;14.094;2024-03-08T09:46:18;7.45;;;6.10;;
10825;SDS011;5466;55.898;14.094;2024-03-08T09:48:20;7.13;;;6.43;;
10825;SDS011;5466;55.898;14.094;2024-03-08T09:50:22;7.45;;;6.20;;
10825;SDS011;5466;55.898;14.094;2024-03-08T09:52:23;6.65;;;5.82;;
10825;SDS011;5466;55.898;14.094;2024-03-08T09:54:25;6.30;;;5.68;;
10825;SDS011;5466;55.898;14.094;2024-03-08T09:56:26;7.70;;;6.03;;
10825;SDS011;5466;55.898;14.094;2024-03-08T09:58:27;7.43;;;6.40;;
10825;SDS011;5466;55.898;14.094;2024-03-08T10:00:34;6.13;;;5.55;;
10825;SDS011;5466;55.898;14.094;2024-03-08T10:02:34;6.85;;;6.00;;
10825;SDS011;5466;55.898;14.094;2024-03-08T10:04:35;6.22;;;5.63;;
10825;SDS011;5466;55.898;14.094;2024-03-08T10:06:36;6.30;;;5.70;;
10825;SDS011;5466;55.898;14.094;2024-03-08T10:08:37;7.85;;;6.53;;
10825;SDS011;5466;55.898;14.094;2024-03-08T10:10:37;6.68;;;5.88;;
10825;SDS011;5466;55.898;14.094;2024-03-08T10:12:38;6.18;;;5.57;;
10825;SDS011;5466;55.898;14.094;2024-03-08T10:14:39;7.05;;;6.35;;
10825;SDS011;5466;55.898;14.094;2024-03-08T10:16:41;7.05;;;5.72;;
10825;SDS011;5466;55.898;14.094;2024-03-08T10:18:41;7.20;;;5.82;;
10825;SDS011;5466;55.898;14.094;2024-03-08T10:20:42;6.68;;;5.82;;
10825;SDS011;5466;55.898;14.094;2024-03-08T10:22:43;8.13;;;6.30;;
10825;SDS011;5466;55.898;14.094;2024-03-08T10:24:45;6.47;;;5.82;;
10825;SDS011;5466;55.898;14.094;2024-03-08T10:26:46;6.75;;;6.05;;
10825;SDS011;5466;55.898;14.094;2024-03-08T10:28:48;7.72;;;6.03;;
10825;SDS011;5466;55.898;14.094;2024-03-08T10:30:49;8.50;;;6.40;;
10825;SDS011;5466;55.898;14.094;2024-03-08T10:32:49;6.88;;;6.15;;
10825;SDS011;5466;55.898;14.094;2024-03-08T10:34:51;8.32;;;6.07;;
10825;SDS011;5466;55.898;14.094;2024-03-08T10:36:52;7.20;;;6.13;;
10825;SDS011;5466;55.898;14.094;2024-03-08T10:38:56;7.00;;;6.25;;
10825;SDS011;5466;55.898;14.094;2024-03-08T10:41:01;7.43;;;6.63;;
10825;SDS011;5466;55.898;14.094;2024-03-08T10:43:03;9.20;;;6.20;;
10825;SDS011;5466;55.898;14.094;2024-03-08T10:45:05;6.60;;;5.70;;
10825;SDS011;5466;55.898;14.094;2024-03-08T10:47:17;7.03;;;6.15;;
10825;SDS011;5466;55.898;14.094;2024-03-08T10:49:25;7.90;;;6.70;;
10825;SDS011;5466;55.898;14.094;2024-03-08T10:51:30;8.35;;;6.57;;
10825;SDS011;5466;55.898;14.094;2024-03-08T10:53:32;7.03;;;6.05;;
10825;SDS011;5466;55.898;14.094;2024-03-08T10:55:34;8.05;;;5.80;;
10825;SDS011;5466;55.898;14.094;2024-03-08T10:57:38;10.18;;;7.68;;
10825;SDS011;5466;55.898;14.094;2024-03-08T10:59:39;9.57;;;6.55;;
10825;SDS011;5466;55.898;14.094;2024-03-08T11:01:43;7.63;;;6.53;;
10825;SDS011;5466;55.898;14.094;2024-03-08T11:03:43;7.13;;;6.43;;
10825;SDS011;5466;55.898;14.094;2024-03-08T11:05:45;7.07;;;6.10;;
10825;SDS011;5466;55.898;14.094;2024-03-08T11:07:49;7.20;;;5.63;;
10825;SDS011;5466;55.898;14.094;2024-03-08T11:09:50;10.63;;;5.85;;
10825;SDS011;5466;55.898;14.094;2024-03-08T11:11:51;6.35;;;5.72;;
10825;SDS011;5466;55.898;14.094;2024-03-08T11:13:52;6.55;;;5.53;;
10825;SDS011;5466;55.898;14.094;2024-03-08T11:15:53;8.07;;;6.07;;
10825;SDS011;5466;55.898;14.094;2024-03-08T11:17:58;7.05;;;5.40;;
10825;SDS011;5466;55.898;14.094;2024-03-08T11:20:00;7.80;;;5.72;;
10825;SDS011;5466;55.898;14.094;2024-03-08T11:22:02;8.77;;;6.20;;
10825;SDS011;5466;55.898;14.094;2024-03-08T11:24:06;6.22;;;5.63;;
10825;SDS011;5466;55.898;14.094;2024-03-08T11:26:22;6.70;;;5.97;;
10825;SDS011;5466;55.898;14.094;2024-03-08T11:28:24;7.93;;;6.47;;
10825;SDS011;5466;55.898;14.094;2024-03-08T11:30:26;7.50;;;6.28;;
10825;SDS011;5466;55.898;14.094;2024-03-08T11:32:28;7.32;;;6.28;;
10825;SDS011;5466;55.898;14.094;2024-03-08T11:34:30;8.18;;;6.78;;
10825;SDS011;5466;55.898;14.094;2024-03-08T11:36:33;7.45;;;6.50;;
10825;SDS011;5466;55.898;14.094;2024-03-08T11:38:40;8.60;;;6.95;;
10825;SDS011;5466;55.898;14.094;2024-03-08T11:40:41;7.25;;;5.78;;
10825;SDS011;5466;55.898;14.094;2024-03-08T11:42:46;7.03;;;5.88;;
10825;SDS011;5466;55.898;14.094;2024-03-08T11:44:51;7.38;;;5.72;;
10825;SDS011;5466;55.898;14.094;2024-03-08T11:46:53;8.07;;;5.82;;
10825;SDS011;5466;55.898;14.094;2024-03-08T11:48:54;6.80;;;5.38;;
10825;SDS011;5466;55.898;14.094;2024-03-08T11:50:59;5.60;;;5.10;;
10825;SDS011;5466;55.898;14.094;2024-03-08T11:53:04;5.95;;;5.35;;
10825;SDS011;5466;55.898;14.094;2024-03-08T11:55:05;4.78;;;4.38;;
10825;SDS011;5466;55.898;14.094;2024-03-08T11:57:06;6.57;;;4.57;;
10825;SDS011;5466;55.898;14.094;2024-03-08T11:59:12;7.32;;;4.70;;
10825;SDS011;5466;55.898;14.094;2024-03-08T12:01:12;7.25;;;4.75;;
10825;SDS011;5466;55.898;14.094;2024-03-08T12:03:13;5.90;;;4.82;;
10825;SDS011;5466;55.898;14.094;2024-03-08T12:05:14;5.43;;;4.75;;
10825;SDS011;5466;55.898;14.094;2024-03-08T12:07:16;7.07;;;5.10;;